Pleasant Grove, Utah
Current Conditions -  °F | °C
As of 1:52 PM on Tuesday 27 Jan 2015 (Local Time) from KPVU Reporting Station
Overcast Overcast  
Wind Chill: 50°   Ceiling: 7000
Heat Index: 50°   Visibility: 10mi
Dew Point: 34°   Wind: 5mph
Humidity: 54%   Direction: NA
Pressure: 30.2"   Gusts: NA
Location:  40.36°N, 111.73°W
Report Text: KPVU 272052Z VRB04KT 10SM OVC070 10/01 A3020
Loading
Personal Weather Stations






























Interactive Weather Map New forecast layout! Learn more

10-Day Weather Forecast

Advertisements
Track Severe Weather on mobile